Time;durP1;ratioP1;P1;durP2;ratioP2;P2;SDS_P1;SDS_P2;PMS_P1;PMS_P2;Temp;Humidity;BMP_temperature;BMP_pressure;BME280_temperature;BME280_humidity;BME280_pressure;Samples;Min_cycle;Max_cycle;Signal;HPM_P1;HPM_P2
2022/09/02 05:52:45;;;;;;;3.00;0.57;;;;;;;19.67;40.73;99966.22;4452772;26;34174;-86
2022/09/02 05:55:14;;;;;;;3.72;0.80;;;;;;;18.92;42.44;99956.56;4423250;32;33388;-86
2022/09/02 05:57:44;;;;;;;2.12;0.70;;;;;;;19.57;41.87;99962.59;4423571;32;33712;-87
2022/09/02 06:00:13;;;;;;;1.98;0.55;;;;;;;20.17;40.05;99961.44;4423907;32;33766;-88
2022/09/02 06:03:01;;;;;;;;;;;;;;;;;;;;;
2022/09/02 06:05:37;;;;;;;1.27;0.57;;;;;;;19.89;39.73;99972.59;4438489;32;34016;-88
2022/09/02 06:08:05;;;;;;;1.98;0.82;;;;;;;19.76;39.71;99966.31;4420123;32;33394;-87
2022/09/02 06:10:40;;;;;;;5.75;0.80;;;;;;;19.56;41.42;99972.22;4427007;32;32254;-87
2022/09/02 06:13:10;;;;;;;2.20;0.80;;;;;;;20.09;40.49;99971.03;4429751;32;33847;-88
2022/09/02 06:15:44;;;;;;;2.00;0.73;;;;;;;20.32;39.78;99962.44;4424123;32;34467;-88
2022/09/02 06:18:13;;;;;;;1.42;0.68;;;;;;;20.55;39.74;99974.03;4436467;32;34100;-87
2022/09/02 06:20:44;;;;;;;1.62;0.70;;;;;;;20.84;37.37;99970.72;4411725;32;34349;-88
2022/09/02 06:23:13;;;;;;;2.35;0.80;;;;;;;21.09;38.00;99971.72;4409554;32;33854;-87
2022/09/02 06:25:43;;;;;;;0.90;0.60;;;;;;;21.16;37.14;99977.91;4432334;32;33775;-87
2022/09/02 06:28:12;;;;;;;2.72;0.70;;;;;;;20.52;39.48;99978.37;4434490;32;33196;-87
2022/09/02 06:30:43;;;;;;;2.53;0.57;;;;;;;20.88;38.06;99976.88;4420732;32;33650;-87
2022/09/02 06:33:11;;;;;;;3.12;0.55;;;;;;;20.48;39.38;99982.75;4424549;32;34524;-87
2022/09/02 06:35:41;;;;;;;1.90;0.80;;;;;;;21.13;38.36;99977.87;4433442;32;34067;-88
2022/09/02 06:38:10;;;;;;;2.97;0.73;;;;;;;21.12;38.75;99974.38;4417999;32;33762;-88
2022/09/02 06:40:50;;;;;;;2.45;0.60;;;;;;;21.56;37.59;99973.69;4416865;32;34229;-87
2022/09/02 06:43:20;;;;;;;2.20;0.60;;;;;;;21.10;38.16;99972.63;4422361;32;32967;-88
2022/09/02 06:45:49;;;;;;;2.22;0.80;;;;;;;20.99;38.34;99986.59;4438349;32;34114;-87
2022/09/02 06:48:16;;;;;;;3.35;0.65;;;;;;;21.31;36.82;99977.97;4434956;32;33581;-87
2022/09/02 06:50:45;;;;;;;2.33;0.60;;;;;;;20.97;37.93;99975.16;4440456;32;34023;-87
2022/09/02 06:53:13;;;;;;;1.67;0.55;;;;;;;21.11;38.14;99977.00;4449320;32;34235;-87
2022/09/02 06:55:43;;;;;;;2.37;0.70;;;;;;;21.57;37.25;99980.72;4435083;32;33679;-87
2022/09/02 06:58:12;;;;;;;2.72;0.73;;;;;;;21.59;37.25;99975.44;4439483;32;34060;-87
2022/09/02 07:00:41;;;;;;;1.90;0.80;;;;;;;21.15;39.29;99981.41;4438655;32;33820;-86
2022/09/02 07:06:16;;;;;;;3.55;0.70;;;;;;;21.12;38.85;99979.66;4404752;32;34266;-86
2022/09/02 07:08:44;;;;;;;2.85;0.77;;;;;;;21.44;38.14;99978.03;4392196;32;32362;-86
2022/09/02 07:11:21;;;;;;;3.28;0.70;;;;;;;21.95;37.46;99981.69;4421603;32;32093;-87
2022/09/02 07:13:50;;;;;;;2.25;0.80;;;;;;;21.57;38.20;99978.06;4450286;32;33766;-87
2022/09/02 07:16:20;;;;;;;2.70;0.70;;;;;;;21.78;37.57;99977.25;4454161;32;33777;-87
2022/09/02 07:18:57;;;;;;;2.00;0.70;;;;;;;21.32;38.03;99963.91;4424267;32;33131;-86
2022/09/02 07:21:25;;;;;;;1.85;0.80;;;;;;;20.84;38.78;99975.09;4423059;32;32898;-86
2022/09/02 07:23:52;;;;;;;2.08;0.70;;;;;;;21.15;38.62;99969.13;4454734;32;33883;-86
2022/09/02 07:26:21;;;;;;;1.87;0.80;;;;;;;21.04;38.38;99972.59;4437450;32;33711;-86
2022/09/02 07:28:49;;;;;;;2.10;0.85;;;;;;;21.55;38.14;99977.19;4440201;32;33415;-86
2022/09/02 07:31:17;;;;;;;3.42;0.90;;;;;;;21.95;37.64;99976.41;4441679;32;33625;-86
2022/09/02 07:33:46;;;;;;;2.78;0.70;;;;;;;21.92;37.30;99976.41;4441365;32;34601;-86
2022/09/02 07:36:20;;;;;;;3.35;0.73;;;;;;;21.77;37.76;99975.50;4443981;32;34404;-88
2022/09/02 07:38:48;;;;;;;1.50;0.77;;;;;;;21.25;38.24;99977.94;4442332;32;33596;-87
2022/09/02 07:41:16;;;;;;;2.87;0.70;;;;;;;22.09;37.62;99979.06;4454493;32;32788;-87
2022/09/02 07:43:45;;;;;;;3.35;0.90;;;;;;;22.05;36.99;99982.56;4439560;32;33285;-90
2022/09/02 07:46:19;;;;;;;1.80;0.77;;;;;;;22.44;37.11;99980.84;4425748;32;31972;-91
2022/09/02 07:48:48;;;;;;;3.33;0.90;;;;;;;21.63;37.71;99979.84;4426333;32;31734;-91
2022/09/02 07:51:18;;;;;;;2.25;0.80;;;;;;;22.15;37.33;99972.00;4424914;32;32816;-90
2022/09/02 07:53:46;;;;;;;6.65;0.90;;;;;;;22.43;37.38;99982.62;4435626;32;32628;-92
2022/09/02 07:56:14;;;;;;;3.62;0.93;;;;;;;21.93;38.14;99972.91;4413252;32;32863;-91
2022/09/02 07:58:43;;;;;;;2.83;0.80;;;;;;;21.79;38.35;99971.13;4428081;32;32286;-93
2022/09/02 08:01:11;;;;;;;2.45;0.60;;;;;;;21.57;38.29;99975.44;4436933;32;34204;-92
2022/09/02 08:03:43;;;;;;;3.22;0.90;;;;;;;21.71;37.87;99967.59;4438031;32;33250;-91
2022/09/02 08:06:12;;;;;;;3.08;0.80;;;;;;;21.72;37.69;99969.34;4426282;32;33184;-91
2022/09/02 08:08:41;;;;;;;6.07;0.98;;;;;;;22.29;36.88;99979.09;4410793;32;32211;-91
2022/09/02 08:11:09;;;;;;;3.08;0.93;;;;;;;22.46;36.30;99979.94;4431123;32;33958;-92
2022/09/02 08:13:36;;;;;;;2.80;0.65;;;;;;;23.67;35.27;99975.19;4427113;32;32197;-89
2022/09/02 08:16:05;;;;;;;2.22;0.80;;;;;;;23.65;35.17;99983.13;4426828;32;32555;-88
2022/09/02 08:18:33;;;;;;;2.03;0.80;;;;;;;23.58;36.04;99981.41;4418928;32;32697;-91
2022/09/02 08:21:01;;;;;;;2.70;1.00;;;;;;;24.14;35.02;99980.19;4428778;32;34603;-90
2022/09/02 08:23:29;;;;;;;2.03;0.90;;;;;;;23.75;35.25;99976.88;4436821;32;35297;-88
2022/09/02 08:26:04;;;;;;;;;;;;;;;24.05;34.42;99974.97;4433585;32;34097;-87
2022/09/02 08:28:32;;;;;;;2.40;1.00;;;;;;;23.96;34.26;99977.69;4432091;32;34456;-89
2022/09/02 08:31:03;;;;;;;2.10;0.80;;;;;;;24.38;34.21;99975.59;4433473;32;35108;-89
2022/09/02 08:33:31;;;;;;;2.05;0.98;;;;;;;24.74;33.92;99970.84;4425366;32;33603;-88
2022/09/02 08:36:10;;;;;;;4.75;1.15;;;;;;;24.76;32.33;99971.69;4435111;32;33786;-89
2022/09/02 08:38:38;;;;;;;2.40;1.10;;;;;;;24.03;34.64;99974.09;4453078;32;33475;-89
2022/09/02 08:41:27;;;;;;;2.60;1.00;;;;;;;23.77;35.66;99965.44;4426384;32;32318;-88
2022/09/02 08:43:57;;;;;;;2.85;0.80;;;;;;;24.17;34.60;99968.69;4428689;32;34228;-88
2022/09/02 08:46:27;;;;;;;2.62;0.90;;;;;;;24.34;34.59;99973.88;4424521;32;33410;-89
2022/09/02 08:49:03;;;;;;;4.62;1.10;;;;;;;23.96;35.51;99963.59;4439908;32;34086;-89
2022/09/02 08:51:34;;;;;;;2.78;0.95;;;;;;;24.80;33.30;99962.84;4438623;32;34600;-89
2022/09/02 08:54:13;;;;;;;4.60;1.30;;;;;;;24.35;34.61;99965.00;4431498;32;33565;-89
2022/09/02 08:56:41;;;;;;;4.05;0.80;;;;;;;23.52;36.20;99965.56;4416043;32;34126;-87
2022/09/02 08:59:09;;;;;;;3.53;1.00;;;;;;;23.59;35.30;99967.31;4446523;32;33745;-88
2022/09/02 09:01:55;;;;;;;2.05;1.08;;;;;;;23.61;35.79;99965.53;4441515;32;33444;-90
2022/09/02 09:04:48;;;;;;;4.45;1.10;;;;;;;23.89;34.84;99966.28;4437587;32;33910;-88
2022/09/02 09:07:26;;;;;;;2.35;1.08;;;;;;;24.45;34.08;99973.75;4443071;32;34101;-89
2022/09/02 09:10:12;;;;;;;3.15;0.95;;;;;;;23.91;35.60;99968.88;4439124;32;34120;-89
2022/09/02 09:13:02;;;;;;;4.57;1.58;;;;;;;24.00;35.64;99960.88;4450440;32;34656;-90
2022/09/02 09:15:45;;;;;;;2.65;1.20;;;;;;;24.21;35.47;99961.63;4449140;32;33878;-89
2022/09/02 09:18:16;;;;;;;3.87;0.93;;;;;;;23.63;35.91;99953.19;4430122;32;34048;-90
2022/09/02 09:20:44;;;;;;;2.08;0.80;;;;;;;23.83;35.96;99962.78;4423059;32;32408;-89
2022/09/02 09:23:32;;;;;;;3.33;0.93;;;;;;;24.38;34.32;99962.34;4424424;32;33985;-87
2022/09/02 09:26:04;;;;;;;4.65;1.40;;;;;;;24.13;34.80;99964.31;4447089;32;34790;-87
2022/09/02 09:28:39;;;;;;;4.43;1.48;;;;;;;24.83;34.43;99956.63;4453211;32;33770;-88
2022/09/02 09:31:09;;;;;;;3.58;1.05;;;;;;;24.82;34.22;99950.47;4430815;32;33438;-90
2022/09/02 09:33:37;;;;;;;4.55;1.00;;;;;;;24.77;34.05;99957.56;4423290;32;33087;-89
2022/09/02 09:36:04;;;;;;;3.70;1.30;;;;;;;25.69;31.73;99953.78;4443087;32;34579;-89
2022/09/02 09:38:35;;;;;;;4.35;1.27;;;;;;;25.66;31.10;99948.50;4436899;32;33810;-88
2022/09/02 09:41:19;;;;;;;3.62;1.33;;;;;;;25.48;31.57;99940.84;4428111;32;32786;-89
2022/09/02 09:43:47;;;;;;;3.25;1.30;;;;;;;24.78;33.85;99942.56;4434163;32;34295;-88
2022/09/02 09:46:26;;;;;;;3.72;1.20;;;;;;;25.62;32.65;99944.16;4430600;32;34529;-89
2022/09/02 09:48:54;;;;;;;3.28;1.15;;;;;;;25.63;32.39;99937.97;4452198;32;34324;-90
2022/09/02 09:51:22;;;;;;;4.75;1.30;;;;;;;25.87;31.44;99930.53;4454374;32;33073;-90
2022/09/02 09:53:49;;;;;;;3.78;1.48;;;;;;;25.73;31.37;99925.44;4448270;32;33759;-89
2022/09/02 09:56:25;;;;;;;2.05;1.00;;;;;;;26.34;29.13;99931.53;4436250;32;34465;-88
2022/09/02 09:58:53;;;;;;;3.03;1.10;;;;;;;26.12;30.74;99938.13;4433578;32;33429;-87
2022/09/02 10:01:33;;;;;;;3.70;1.37;;;;;;;25.01;31.57;99929.91;4430094;32;34033;-89
2022/09/02 10:04:10;;;;;;;3.67;1.37;;;;;;;26.06;30.80;99929.34;4448199;32;34149;-86
2022/09/02 10:06:58;;;;;;;4.43;1.40;;;;;;;25.98;31.29;99936.56;4451402;32;33807;-87
2022/09/02 10:09:31;;;;;;;4.03;1.17;;;;;;;26.13;31.00;99929.25;4440210;32;34480;-86
2022/09/02 10:12:10;;;;;;;2.67;1.10;;;;;;;26.38;30.15;99925.25;4439842;32;34278;-87
2022/09/02 10:14:42;;;;;;;2.72;1.12;;;;;;;26.40;30.74;99927.88;4430521;32;33645;-87
2022/09/02 10:17:34;;;;;;;5.45;1.50;;;;;;;26.13;30.94;99934.56;4434705;32;33413;-87
2022/09/02 10:20:07;;;;;;;4.10;1.47;;;;;;;26.81;30.20;99927.16;4448451;32;33497;-86
2022/09/02 10:22:56;;;;;;;3.90;1.10;;;;;;;26.11;31.90;99931.06;4432563;32;32976;-86
2022/09/02 10:25:45;;;;;;;5.37;1.20;;;;;;;25.89;32.18;99926.06;4447486;32;33306;-86
2022/09/02 10:28:31;;;;;;;5.43;1.30;;;;;;;25.75;32.14;99928.03;4448287;32;34794;-86
2022/09/02 10:31:33;;;;;;;3.00;1.10;;;;;;;25.59;33.59;99932.72;4437483;32;33904;-87
2022/09/02 10:34:19;;;;;;;8.40;1.58;;;;;;;25.42;32.71;99930.28;4448528;32;33038;-87
2022/09/02 10:37:17;;;;;;;3.33;1.17;;;;;;;25.25;34.27;99934.06;4417966;32;33427;-86
2022/09/02 10:39:54;;;;;;;3.45;1.30;;;;;;;25.42;34.24;99925.87;4433753;32;34582;-87
2022/09/02 10:42:38;;;;;;;2.72;0.90;;;;;;;25.11;34.53;99934.22;4434804;32;33777;-87
2022/09/02 10:45:35;;;;;;;3.50;1.48;;;;;;;25.55;32.61;99931.87;4448540;32;34174;-87
2022/09/02 10:48:22;;;;;;;9.27;1.92;;;;;;;25.94;32.53;99926.91;4438521;32;33670;-86
2022/09/02 10:51:02;;;;;;;8.07;1.40;;;;;;;25.39;33.39;99927.69;4438564;32;33284;-88
2022/09/02 10:53:58;;;;;;;5.57;1.50;;;;;;;26.13;32.82;99929.25;4428133;32;31826;-87
2022/09/02 10:56:40;;;;;;;5.75;1.40;;;;;;;26.02;33.01;99929.41;4423252;32;33327;-90
2022/09/02 10:59:23;;;;;;;4.60;1.23;;;;;;;25.41;34.53;99931.22;4432000;32;33814;-88
2022/09/02 11:01:54;;;;;;;2.40;1.10;;;;;;;26.04;32.86;99931.16;4411144;32;33652;-87
2022/09/02 11:04:38;;;;;;;5.30;1.50;;;;;;;26.09;32.72;99928.41;4415354;32;33505;-87
2022/09/02 11:07:09;;;;;;;2.78;1.00;;;;;;;25.93;31.49;99938.41;4416888;32;33041;-87
2022/09/02 11:09:45;;;;;;;3.05;1.02;;;;;;;26.13;31.35;99932.78;4424813;32;32336;-87
2022/09/02 11:12:17;;;;;;;6.30;1.35;;;;;;;25.60;32.41;99929.19;4435742;32;34076;-86
2022/09/02 11:14:54;;;;;;;3.25;1.10;;;;;;;25.19;33.67;99938.53;4426458;32;32542;-86
2022/09/02 11:17:44;;;;;;;2.78;1.20;;;;;;;25.65;33.88;99929.97;4426094;32;33899;-86
2022/09/02 11:20:20;;;;;;;8.95;1.60;;;;;;;26.11;32.92;99921.31;4433583;32;31768;-86
2022/09/02 11:22:58;;;;;;;3.55;1.20;;;;;;;25.87;32.91;99922.56;4448448;32;34775;-86
2022/09/02 11:25:36;;;;;;;3.42;1.10;;;;;;;26.09;31.57;99923.97;4431207;32;33829;-87
2022/09/02 11:28:22;;;;;;;4.22;1.40;;;;;;;25.81;33.41;99912.06;4430836;32;33965;-86
2022/09/02 11:30:54;;;;;;;3.53;1.10;;;;;;;26.40;31.06;99910.16;4435176;32;31968;-86
2022/09/02 11:33:28;;;;;;;4.55;1.10;;;;;;;25.84;32.93;99912.84;4408409;32;32815;-87
2022/09/02 11:35:57;;;;;;;5.07;1.25;;;;;;;26.13;32.59;99908.00;4433864;32;33942;-90
2022/09/02 11:39:11;;;;;;;5.90;1.42;;;;;;;26.38;31.14;99898.69;4435754;32;33293;-88
2022/09/02 11:42:03;;;;;;;3.35;1.40;;;;;;;26.24;33.01;99904.25;4418983;32;32341;-90
2022/09/02 11:45:24;;;;;;;4.45;1.20;;;;;;;26.44;31.90;99897.72;4428490;32;33949;-87
2022/09/02 11:48:33;;;;;;;3.70;1.15;;;;;;;27.01;30.75;99899.28;4436993;32;33729;-87
2022/09/02 11:51:19;;;;;;;4.18;1.40;;;;;;;27.01;29.91;99884.19;4434592;32;31745;-85
2022/09/02 11:53:54;;;;;;;2.42;1.20;;;;;;;26.86;31.64;99893.34;4429311;32;34691;-86
2022/09/02 11:56:27;;;;;;;4.50;1.30;;;;;;;27.00;31.36;99882.44;4433621;32;32509;-86
2022/09/02 11:58:55;;;;;;;2.55;1.17;;;;;;;27.42;30.76;99889.53;4427556;32;34534;-88
2022/09/02 12:01:30;;;;;;;4.18;1.62;;;;;;;27.29;30.77;99882.75;4415057;32;32077;-86
2022/09/02 12:04:11;;;;;;;3.47;1.20;;;;;;;27.30;30.08;99879.19;4426498;32;33729;-85
2022/09/02 12:07:07;;;;;;;3.53;1.40;;;;;;;27.11;30.10;99884.88;4429893;32;33326;-86
2022/09/02 12:09:50;;;;;;;2.95;1.17;;;;;;;27.34;29.75;99891.50;4438843;32;33920;-86
2022/09/02 12:12:35;;;;;;;6.45;1.30;;;;;;;26.87;31.05;99887.16;4427701;32;33051;-86
2022/09/02 12:15:03;;;;;;;2.12;1.00;;;;;;;27.46;29.60;99885.91;4425123;32;33325;-86
2022/09/02 12:17:43;;;;;;;2.72;1.20;;;;;;;26.83;29.07;99884.56;4436353;32;33495;-86
2022/09/02 12:20:37;;;;;;;4.15;1.20;;;;;;;27.02;30.11;99879.75;4434699;32;34985;-86
2022/09/02 12:23:06;;;;;;;5.67;1.30;;;;;;;26.80;30.00;99887.31;4438510;32;33187;-86
2022/09/02 12:25:37;;;;;;;3.75;1.30;;;;;;;26.80;29.32;99877.56;4436955;32;33842;-86
2022/09/02 12:28:24;;;;;;;3.70;1.40;;;;;;;26.98;29.14;99883.38;4435388;32;33502;-87
2022/09/02 12:31:06;;;;;;;2.75;1.30;;;;;;;26.80;30.41;99868.72;4428400;32;33315;-87
2022/09/02 12:33:36;;;;;;;3.33;1.35;;;;;;;26.42;30.96;99879.13;4439271;32;33049;-87
2022/09/02 12:36:06;;;;;;;3.03;0.95;;;;;;;26.62;30.23;99876.16;4427904;32;32751;-87
2022/09/02 12:38:38;;;;;;;3.72;1.60;;;;;;;26.66;30.67;99863.69;4433214;32;33604;-89
2022/09/02 12:41:33;;;;;;;2.75;1.00;;;;;;;27.23;30.68;99868.62;4431816;32;32733;-87
2022/09/02 12:44:52;;;;;;;3.92;1.23;;;;;;;27.27;28.31;99869.47;4432119;32;33621;-86
2022/09/02 12:47:39;;;;;;;4.80;1.27;;;;;;;26.88;30.70;99872.94;4405289;32;33445;-86
2022/09/02 12:50:32;;;;;;;2.97;1.10;;;;;;;26.87;29.43;99868.56;4431113;32;34426;-86
2022/09/02 12:53:28;;;;;;;3.42;1.10;;;;;;;26.52;30.70;99861.28;4442874;32;34387;-87
2022/09/02 12:56:00;;;;;;;5.43;1.67;;;;;;;26.95;30.16;99862.19;4447773;32;34173;-86
2022/09/02 12:58:51;;;;;;;3.00;1.20;;;;;;;26.76;30.74;99867.03;4441428;32;33532;-86
2022/09/02 13:01:29;;;;;;;2.95;1.27;;;;;;;26.76;29.12;99861.72;4447241;32;33502;-86
2022/09/02 13:04:15;;;;;;;3.92;1.30;;;;;;;26.56;29.94;99854.09;4428863;32;33940;-86
2022/09/02 13:07:06;;;;;;;4.68;1.65;;;;;;;26.41;29.22;99849.97;4441852;32;33225;-86
2022/09/02 13:09:59;;;;;;;3.83;1.48;;;;;;;26.22;31.28;99849.44;4430815;32;33461;-86
2022/09/02 13:12:39;;;;;;;2.72;1.42;;;;;;;26.52;31.11;99853.31;4424571;32;33955;-86
2022/09/02 13:15:23;;;;;;;5.40;1.50;;;;;;;26.58;31.58;99852.28;4421412;32;33907;-86
2022/09/02 13:18:12;;;;;;;3.70;1.60;;;;;;;26.97;32.21;99855.06;4451039;32;34122;-87
2022/09/02 13:20:55;;;;;;;3.72;1.30;;;;;;;26.96;31.14;99850.66;4452398;32;33680;-86
2022/09/02 13:24:01;;;;;;;3.30;1.02;;;;;;;26.95;30.61;99846.25;4439927;32;34251;-88
2022/09/02 13:26:44;;;;;;;3.95;1.33;;;;;;;26.53;30.88;99843.53;4361663;32;31984;-86
2022/09/02 13:29:40;;;;;;;4.62;1.65;;;;;;;26.40;31.66;99842.91;4368685;32;33929;-88
2022/09/02 13:32:21;;;;;;;5.43;1.35;;;;;;;26.96;31.02;99842.66;4432703;32;34310;-87
2022/09/02 13:34:50;;;;;;;2.80;1.40;;;;;;;26.84;29.88;99849.13;4452360;32;34952;-87
2022/09/02 13:37:34;;;;;;;3.03;1.55;;;;;;;26.86;29.90;99845.53;4423420;32;33836;-87
2022/09/02 13:40:18;;;;;;;5.28;1.50;;;;;;;26.52;30.62;99845.34;4431334;32;34002;-87
2022/09/02 13:42:52;;;;;;;3.83;1.37;;;;;;;26.44;31.29;99840.16;4443092;32;34475;-86
2022/09/02 13:45:22;;;;;;;7.32;1.50;;;;;;;26.49;31.32;99838.28;4441581;32;33776;-86
2022/09/02 13:47:56;;;;;;;3.67;1.42;;;;;;;26.41;30.85;99840.22;4443459;32;34345;-88
2022/09/02 13:50:26;;;;;;;4.62;1.30;;;;;;;27.04;30.28;99830.06;4414598;32;32901;-84
2022/09/02 13:53:06;;;;;;;2.35;1.25;;;;;;;26.55;30.29;99831.97;4426925;32;34020;-84
2022/09/02 13:55:54;;;;;;;5.78;1.37;;;;;;;26.47;31.03;99834.78;4419301;32;33640;-84
2022/09/02 13:58:28;;;;;;;4.80;1.70;;;;;;;26.24;31.03;99821.09;4438031;32;34036;-83
2022/09/02 14:00:57;;;;;;;2.92;1.40;;;;;;;25.90;31.54;99827.88;4434586;32;33174;-83
2022/09/02 14:03:31;;;;;;;2.12;1.20;;;;;;;25.92;31.06;99830.50;4434154;32;33912;-86
2022/09/02 14:05:59;;;;;;;4.15;1.42;;;;;;;25.97;31.67;99822.47;4426699;32;32984;-86
2022/09/02 14:08:29;;;;;;;2.92;1.42;;;;;;;25.78;31.30;99833.34;4422425;32;34045;-87
2022/09/02 14:10:57;;;;;;;3.70;1.40;;;;;;;25.38;31.91;99828.72;4409032;32;32776;-87
2022/09/02 14:13:25;;;;;;;3.75;1.60;;;;;;;25.65;31.27;99837.12;4392193;32;32266;-87
2022/09/02 14:15:54;;;;;;;3.25;1.60;;;;;;;25.57;32.00;99831.94;4417340;32;33033;-85
2022/09/02 14:18:23;;;;;;;4.85;1.73;;;;;;;25.90;32.01;99837.56;4419517;32;34532;-84
2022/09/02 14:21:03;;;;;;;2.55;1.10;;;;;;;25.89;30.97;99825.22;4424976;32;33216;-84
2022/09/02 14:23:34;;;;;;;4.68;1.50;;;;;;;25.44;31.59;99838.34;4423750;32;33821;-85
2022/09/02 14:26:03;;;;;;;7.00;1.60;;;;;;;25.43;31.27;99836.59;4435653;32;33990;-86
2022/09/02 14:28:32;;;;;;;3.47;1.40;;;;;;;25.13;31.76;99833.47;4417782;32;33561;-85
2022/09/02 14:31:05;;;;;;;3.37;1.50;;;;;;;25.26;31.24;99829.75;4412590;32;33509;-87
2022/09/02 14:33:46;;;;;;;2.60;1.33;;;;;;;25.44;32.21;99836.59;4414647;32;34022;-86
2022/09/02 14:36:22;;;;;;;3.83;1.50;;;;;;;25.05;33.42;99841.53;4423147;32;34337;-85
2022/09/02 14:38:51;;;;;;;7.32;1.60;;;;;;;25.56;32.25;99843.47;4427138;32;33929;-87
2022/09/02 14:41:26;;;;;;;3.03;1.48;;;;;;;25.22;33.03;99843.97;4430322;32;33455;-85
2022/09/02 14:43:58;;;;;;;4.62;1.50;;;;;;;25.45;33.52;99845.41;4431601;32;35046;-87
2022/09/02 14:46:35;;;;;;;4.22;1.50;;;;;;;25.50;33.44;99839.13;4419285;32;33987;-86
2022/09/02 14:49:08;;;;;;;6.37;1.58;;;;;;;25.83;33.08;99841.25;4421724;32;34205;-85
2022/09/02 14:51:44;;;;;;;4.22;1.60;;;;;;;25.38;34.22;99843.72;4409285;32;33530;-84
2022/09/02 14:54:38;;;;;;;7.62;1.90;;;;;;;25.58;33.54;99840.78;4425574;32;34319;-84
2022/09/02 14:57:27;;;;;;;5.32;1.62;;;;;;;25.74;33.25;99852.03;4451178;32;34040;-85
2022/09/02 15:00:20;;;;;;;4.37;1.45;;;;;;;25.46;33.23;99844.53;4438428;32;34569;-86
2022/09/02 15:02:55;;;;;;;4.15;1.50;;;;;;;25.27;33.79;99847.44;4447343;32;32296;-86
2022/09/02 15:05:23;;;;;;;3.55;1.58;;;;;;;25.72;32.80;99838.78;4435694;32;33498;-86
2022/09/02 15:07:51;;;;;;;5.03;1.52;;;;;;;25.70;33.59;99848.53;4437565;32;34645;-86
2022/09/02 15:10:18;;;;;;;4.43;1.80;;;;;;;25.65;34.00;99853.94;4438375;32;33756;-86
2022/09/02 15:12:49;;;;;;;3.78;1.48;;;;;;;25.71;33.79;99847.66;4448192;32;33353;-85
2022/09/02 15:15:17;;;;;;;3.37;1.50;;;;;;;25.76;34.55;99839.59;4431761;32;34278;-86
2022/09/02 15:17:44;;;;;;;4.53;1.50;;;;;;;25.70;34.43;99846.75;4434060;32;34758;-85
2022/09/02 15:20:12;;;;;;;3.65;1.40;;;;;;;25.78;34.38;99843.09;4449694;32;33753;-86
2022/09/02 15:22:39;;;;;;;3.83;1.40;;;;;;;25.91;34.26;99839.38;4451295;32;34113;-85
2022/09/02 15:25:07;;;;;;;4.35;1.70;;;;;;;25.88;34.09;99834.06;4438808;32;33806;-85
2022/09/02 15:27:35;;;;;;;6.10;1.50;;;;;;;25.51;34.40;99837.34;4439120;32;33680;-85
2022/09/02 15:30:04;;;;;;;3.03;1.48;;;;;;;26.08;33.13;99837.28;4445852;32;33498;-84
2022/09/02 15:32:32;;;;;;;2.95;1.40;;;;;;;26.23;32.34;99841.47;4435170;32;33066;-85
2022/09/02 15:35:00;;;;;;;6.12;1.35;;;;;;;25.60;34.35;99845.16;4446346;32;33029;-85
2022/09/02 15:37:27;;;;;;;3.08;1.50;;;;;;;26.02;33.43;99845.38;4425150;32;33130;-86
2022/09/02 15:39:55;;;;;;;6.95;1.55;;;;;;;26.15;33.14;99847.78;4457077;32;34532;-86
2022/09/02 15:42:23;;;;;;;4.93;1.87;;;;;;;25.48;35.69;99840.06;4463179;32;33600;-85
2022/09/02 15:44:50;;;;;;;3.72;1.98;;;;;;;26.06;36.55;99854.16;4446140;32;34092;-86
2022/09/02 15:47:20;;;;;;;6.35;2.15;;;;;;;25.92;37.48;99856.16;4431140;32;33711;-86
2022/09/02 15:49:47;;;;;;;6.47;2.00;;;;;;;26.16;37.26;99862.84;4452061;32;34003;-85
2022/09/02 15:52:15;;;;;;;4.15;2.00;;;;;;;26.11;37.42;99862.03;4450293;32;33275;-86
2022/09/02 15:54:42;;;;;;;5.55;2.03;;;;;;;26.12;37.87;99864.66;4437291;32;33834;-85
2022/09/02 15:57:10;;;;;;;6.80;2.22;;;;;;;26.22;37.84;99865.38;4442830;32;33703;-86
2022/09/02 15:59:37;;;;;;;4.45;2.30;;;;;;;25.66;38.90;99874.22;4425502;32;33708;-86
2022/09/02 16:02:05;;;;;;;4.82;1.92;;;;;;;25.53;38.58;99875.31;4412164;32;33200;-85
2022/09/02 16:04:33;;;;;;;5.93;1.98;;;;;;;25.44;38.88;99872.81;4439792;32;34338;-87
2022/09/02 16:07:01;;;;;;;6.28;2.00;;;;;;;25.20;39.54;99882.84;4436798;32;34625;-85
2022/09/02 16:09:29;;;;;;;6.18;2.25;;;;;;;25.31;39.69;99880.94;4437960;32;33616;-86
2022/09/02 16:11:56;;;;;;;6.10;1.90;;;;;;;25.06;40.46;99884.81;4438365;32;32912;-86
2022/09/02 16:14:24;;;;;;;4.82;1.87;;;;;;;24.81;41.21;99885.13;4435323;32;34666;-86
2022/09/02 16:16:52;;;;;;;4.30;2.08;;;;;;;24.75;41.71;99885.19;4435012;32;34368;-87
2022/09/02 16:19:23;;;;;;;5.32;1.92;;;;;;;24.54;42.28;99881.00;4407794;32;33554;-87
2022/09/02 16:21:51;;;;;;;7.30;2.35;;;;;;;24.57;41.84;99890.69;4416064;32;34070;-88
2022/09/02 16:24:20;;;;;;;5.10;2.33;;;;;;;24.36;42.66;99889.09;4417182;32;33813;-87
2022/09/02 16:26:49;;;;;;;5.03;1.90;;;;;;;24.18;43.29;99885.75;4415737;32;33817;-87
2022/09/02 16:29:18;;;;;;;6.07;1.90;;;;;;;24.13;43.25;99891.09;4416330;32;34150;-87
2022/09/02 16:31:47;;;;;;;5.62;2.40;;;;;;;24.06;43.05;99893.81;4421314;32;32929;-85
2022/09/02 16:34:34;;;;;;;6.85;2.22;;;;;;;23.99;43.12;99898.28;4426502;32;33586;-86
2022/09/02 16:37:02;;;;;;;8.70;2.62;;;;;;;23.70;43.71;99912.59;4433982;32;32864;-85
2022/09/02 16:39:29;;;;;;;6.60;2.58;;;;;;;23.46;44.42;99907.47;4428617;32;34107;-85
2022/09/02 16:42:02;;;;;;;7.60;2.70;;;;;;;23.50;44.08;99911.81;4423074;32;33340;-85
2022/09/02 16:44:32;;;;;;;8.13;2.70;;;;;;;23.48;43.88;99913.59;4431744;32;33712;-85
2022/09/02 16:47:00;;;;;;;8.18;2.92;;;;;;;23.54;43.53;99909.16;4422738;32;33458;-85
2022/09/02 16:49:27;;;;;;;6.12;2.45;;;;;;;23.49;43.68;99913.59;4438029;32;33940;-85
2022/09/02 16:51:55;;;;;;;8.77;2.65;;;;;;;23.46;44.09;99910.09;4436961;32;33184;-86
2022/09/02 16:54:27;;;;;;;6.62;2.28;;;;;;;23.45;44.06;99908.31;4448539;32;33679;-85
2022/09/02 16:56:59;;;;;;;6.45;2.35;;;;;;;23.29;44.48;99916.34;4441735;32;34655;-85
2022/09/02 16:59:30;;;;;;;8.52;2.70;;;;;;;23.05;45.08;99919.13;4444484;32;96256;-86
2022/09/02 17:01:57;;;;;;;6.00;2.70;;;;;;;23.41;44.34;99907.50;4432497;32;33620;-85
2022/09/02 17:04:25;;;;;;;5.50;2.08;;;;;;;23.33;44.77;99920.75;4428301;32;34014;-86
2022/09/02 17:06:53;;;;;;;6.45;2.08;;;;;;;23.34;44.98;99918.97;4435491;32;34944;-86
2022/09/02 17:09:20;;;;;;;7.03;2.28;;;;;;;23.06;45.37;99920.88;4441678;32;34068;-85
2022/09/02 17:11:48;;;;;;;5.47;2.35;;;;;;;22.96;46.14;99928.78;4448295;32;33238;-84
2022/09/02 17:14:16;;;;;;;6.80;2.25;;;;;;;22.41;47.60;99934.22;4433271;32;33598;-86
2022/09/02 17:16:46;;;;;;;5.55;2.15;;;;;;;22.90;46.03;99918.25;4436272;32;34620;-82
2022/09/02 17:19:19;;;;;;;7.43;2.20;;;;;;;23.05;45.75;99932.34;4436538;32;33458;-84
2022/09/02 17:21:51;;;;;;;5.03;2.20;;;;;;;22.54;46.46;99920.13;4447817;32;33011;-83
2022/09/02 17:24:24;;;;;;;7.72;2.33;;;;;;;22.55;46.61;99921.00;4444801;32;34579;-83
2022/09/02 17:26:54;;;;;;;9.98;2.35;;;;;;;22.46;47.37;99927.16;4447968;32;34084;-85
2022/09/02 17:29:24;;;;;;;8.82;2.58;;;;;;;22.68;47.00;99925.37;4439647;32;33979;-85
2022/09/02 17:32:11;;;;;;;6.90;2.25;;;;;;;22.45;48.02;99930.69;4427364;32;33402;-85
2022/09/02 17:34:39;;;;;;;6.35;2.58;;;;;;;22.60;47.25;99920.97;4436609;32;33589;-83
2022/09/02 17:37:07;;;;;;;4.53;2.00;;;;;;;22.70;47.12;99935.94;4446819;32;34588;-85
2022/09/02 17:39:35;;;;;;;4.82;2.33;;;;;;;22.16;48.48;99928.94;4451355;32;33729;-84
2022/09/02 17:42:03;;;;;;;8.52;2.62;;;;;;;22.18;48.93;99935.09;4445020;32;33425;-84
2022/09/02 17:44:37;;;;;;;4.72;2.35;;;;;;;21.94;49.49;99927.16;4441887;32;35143;-84
2022/09/02 17:47:07;;;;;;;4.93;2.12;;;;;;;22.11;49.05;99932.44;4445566;32;32419;-82
2022/09/02 17:49:35;;;;;;;5.55;2.50;;;;;;;22.17;49.08;99932.44;4448260;32;33989;-84
2022/09/02 17:52:04;;;;;;;9.88;2.75;;;;;;;22.06;49.49;99937.75;4449602;32;33369;-84
2022/09/02 17:54:33;;;;;;;9.40;2.55;;;;;;;21.79;50.01;99934.19;4428244;32;33721;-83
2022/09/02 17:57:22;;;;;;;8.15;2.35;;;;;;;21.63;50.56;99936.81;4439828;32;34881;-84
2022/09/02 18:00:16;;;;;;;5.70;1.90;;;;;;;22.13;49.01;99944.75;4431669;32;33747;-85
2022/09/02 18:03:02;;;;;;;4.82;2.17;;;;;;;21.70;50.55;99944.72;4434067;32;34187;-85
2022/09/02 18:05:35;;;;;;;4.25;2.10;;;;;;;21.73;50.62;99944.75;4443303;32;33789;-85